sensor_id;sensor_type;location;lat;lon;timestamp;pressure;altitude;pressure_sealevel;temperature;humidity
31538;BME280;18147;51.952;6.146;2022-11-21T00:01:25;100473.56;;;1.18;100.00
31538;BME280;18147;51.952;6.146;2022-11-21T00:03:51;100474.53;;;1.16;100.00
31538;BME280;18147;51.952;6.146;2022-11-21T00:06:17;100477.09;;;1.17;100.00
31538;BME280;18147;51.952;6.146;2022-11-21T00:08:43;100479.66;;;1.19;100.00
31538;BME280;18147;51.952;6.146;2022-11-21T00:11:09;100481.06;;;1.31;100.00
31538;BME280;18147;51.952;6.146;2022-11-21T00:13:34;100486.88;;;1.40;100.00
31538;BME280;18147;51.952;6.146;2022-11-21T00:16:04;100481.03;;;1.32;100.00
31538;BME280;18147;51.952;6.146;2022-11-21T00:18:30;100495.28;;;1.23;100.00
31538;BME280;18147;51.952;6.146;2022-11-21T00:20:56;100492.66;;;1.23;100.00
31538;BME280;18147;51.952;6.146;2022-11-21T00:23:22;100494.63;;;1.17;100.00
31538;BME280;18147;51.952;6.146;2022-11-21T00:25:50;100494.38;;;1.24;100.00
31538;BME280;18147;51.952;6.146;2022-11-21T00:28:15;100489.38;;;1.17;100.00
31538;BME280;18147;51.952;6.146;2022-11-21T00:30:40;100495.47;;;1.17;100.00
31538;BME280;18147;51.952;6.146;2022-11-21T00:33:06;100491.59;;;1.29;100.00
31538;BME280;18147;51.952;6.146;2022-11-21T00:35:31;100490.28;;;1.16;100.00
31538;BME280;18147;51.952;6.146;2022-11-21T00:37:57;100490.22;;;1.17;100.00
31538;BME280;18147;51.952;6.146;2022-11-21T00:40:22;100492.72;;;1.22;100.00
31538;BME280;18147;51.952;6.146;2022-11-21T00:42:48;100499.81;;;1.18;100.00
31538;BME280;18147;51.952;6.146;2022-11-21T00:45:13;100495.53;;;1.16;100.00
31538;BME280;18147;51.952;6.146;2022-11-21T00:47:38;100502.38;;;1.20;100.00
31538;BME280;18147;51.952;6.146;2022-11-21T00:50:04;100498.00;;;1.20;100.00
31538;BME280;18147;51.952;6.146;2022-11-21T00:52:30;100499.97;;;1.14;100.00
31538;BME280;18147;51.952;6.146;2022-11-21T00:54:55;100492.91;;;1.16;100.00
31538;BME280;18147;51.952;6.146;2022-11-21T00:57:21;100485.75;;;1.21;100.00
31538;BME280;18147;51.952;6.146;2022-11-21T00:59:46;100491.13;;;1.16;100.00
31538;BME280;18147;51.952;6.146;2022-11-21T01:02:11;100493.91;;;1.12;100.00
31538;BME280;18147;51.952;6.146;2022-11-21T01:04:38;100488.78;;;1.07;100.00
31538;BME280;18147;51.952;6.146;2022-11-21T01:07:03;100500.81;;;1.14;100.00
31538;BME280;18147;51.952;6.146;2022-11-21T01:09:29;100495.69;;;1.10;100.00
31538;BME280;18147;51.952;6.146;2022-11-21T01:11:55;100507.09;;;1.09;100.00
31538;BME280;18147;51.952;6.146;2022-11-21T01:14:21;100506.97;;;1.13;100.00
31538;BME280;18147;51.952;6.146;2022-11-21T01:16:46;100509.69;;;1.10;100.00
31538;BME280;18147;51.952;6.146;2022-11-21T01:19:11;100511.44;;;1.10;100.00
31538;BME280;18147;51.952;6.146;2022-11-21T01:21:40;100515.84;;;1.09;100.00
31538;BME280;18147;51.952;6.146;2022-11-21T01:24:05;100519.97;;;1.18;100.00
31538;BME280;18147;51.952;6.146;2022-11-21T01:26:31;100517.47;;;1.13;100.00
31538;BME280;18147;51.952;6.146;2022-11-21T01:28:57;100517.56;;;1.10;100.00
31538;BME280;18147;51.952;6.146;2022-11-21T01:31:27;100518.56;;;1.06;100.00
31538;BME280;18147;51.952;6.146;2022-11-21T01:33:54;100521.22;;;1.04;100.00
31538;BME280;18147;51.952;6.146;2022-11-21T01:36:31;100513.19;;;1.11;100.00
31538;BME280;18147;51.952;6.146;2022-11-21T01:38:59;100517.63;;;1.09;100.00
31538;BME280;18147;51.952;6.146;2022-11-21T01:41:31;100511.59;;;1.05;100.00
31538;BME280;18147;51.952;6.146;2022-11-21T01:44:03;100511.56;;;1.07;100.00
31538;BME280;18147;51.952;6.146;2022-11-21T01:46:31;100501.78;;;1.12;100.00
31538;BME280;18147;51.952;6.146;2022-11-21T01:49:03;100509.66;;;1.12;100.00
31538;BME280;18147;51.952;6.146;2022-11-21T01:54:18;100501.19;;;1.02;100.00
31538;BME280;18147;51.952;6.146;2022-11-21T01:57:07;100505.34;;;1.09;100.00
31538;BME280;18147;51.952;6.146;2022-11-21T01:59:39;100502.13;;;0.99;100.00
31538;BME280;18147;51.952;6.146;2022-11-21T02:02:07;100495.09;;;1.01;100.00
31538;BME280;18147;51.952;6.146;2022-11-21T02:04:35;100491.59;;;1.01;100.00
31538;BME280;18147;51.952;6.146;2022-11-21T02:07:03;100493.25;;;1.03;100.00
31538;BME280;18147;51.952;6.146;2022-11-21T02:09:32;100483.66;;;1.02;100.00
31538;BME280;18147;51.952;6.146;2022-11-21T02:12:03;100492.47;;;1.00;100.00
31538;BME280;18147;51.952;6.146;2022-11-21T02:14:34;100494.84;;;1.09;100.00
31538;BME280;18147;51.952;6.146;2022-11-21T02:17:03;100498.44;;;1.07;100.00
31538;BME280;18147;51.952;6.146;2022-11-21T02:20:05;100505.41;;;1.08;100.00
31538;BME280;18147;51.952;6.146;2022-11-21T02:25:21;100515.84;;;1.09;100.00
31538;BME280;18147;51.952;6.146;2022-11-21T02:27:49;100500.34;;;1.01;100.00
31538;BME280;18147;51.952;6.146;2022-11-21T02:30:15;100504.59;;;1.06;100.00
31538;BME280;18147;51.952;6.146;2022-11-21T02:32:43;100512.31;;;1.10;100.00
31538;BME280;18147;51.952;6.146;2022-11-21T02:35:17;100511.91;;;1.24;100.00
31538;BME280;18147;51.952;6.146;2022-11-21T02:37:47;100512.91;;;1.20;100.00
31538;BME280;18147;51.952;6.146;2022-11-21T02:40:19;100517.28;;;1.19;100.00
31538;BME280;18147;51.952;6.146;2022-11-21T02:43:03;100508.81;;;1.10;100.00
31538;BME280;18147;51.952;6.146;2022-11-21T02:45:34;100511.38;;;1.13;100.00
31538;BME280;18147;51.952;6.146;2022-11-21T02:48:02;100512.72;;;1.26;100.00
31538;BME280;18147;51.952;6.146;2022-11-21T02:50:47;100519.56;;;1.32;100.00
31538;BME280;18147;51.952;6.146;2022-11-21T02:53:15;100514.47;;;1.25;100.00
31538;BME280;18147;51.952;6.146;2022-11-21T02:55:42;100516.28;;;1.23;100.00
31538;BME280;18147;51.952;6.146;2022-11-21T02:58:07;100521.34;;;1.31;100.00
31538;BME280;18147;51.952;6.146;2022-11-21T03:00:36;100513.75;;;1.20;100.00
31538;BME280;18147;51.952;6.146;2022-11-21T03:03:02;100502.44;;;1.18;100.00
31538;BME280;18147;51.952;6.146;2022-11-21T03:05:28;100500.66;;;1.19;100.00
31538;BME280;18147;51.952;6.146;2022-11-21T03:07:53;100509.28;;;1.24;100.00
31538;BME280;18147;51.952;6.146;2022-11-21T03:10:19;100503.44;;;1.14;100.00
31538;BME280;18147;51.952;6.146;2022-11-21T03:13:09;100501.34;;;1.25;100.00
31538;BME280;18147;51.952;6.146;2022-11-21T03:15:36;100497.06;;;1.23;100.00
31538;BME280;18147;51.952;6.146;2022-11-21T03:18:02;100491.03;;;1.19;100.00
31538;BME280;18147;51.952;6.146;2022-11-21T03:20:33;100481.56;;;1.14;100.00
31538;BME280;18147;51.952;6.146;2022-11-21T03:22:59;100474.75;;;1.08;100.00
31538;BME280;18147;51.952;6.146;2022-11-21T03:25:24;100472.78;;;1.15;100.00
31538;BME280;18147;51.952;6.146;2022-11-21T03:27:51;100463.38;;;1.08;100.00
31538;BME280;18147;51.952;6.146;2022-11-21T03:30:18;100482.69;;;1.07;100.00
31538;BME280;18147;51.952;6.146;2022-11-21T03:32:44;100476.56;;;1.06;100.00
31538;BME280;18147;51.952;6.146;2022-11-21T03:35:09;100479.19;;;1.06;100.00
31538;BME280;18147;51.952;6.146;2022-11-21T03:37:34;100477.38;;;1.08;100.00
31538;BME280;18147;51.952;6.146;2022-11-21T03:40:00;100473.97;;;1.04;100.00
31538;BME280;18147;51.952;6.146;2022-11-21T03:42:25;100470.50;;;1.04;100.00
31538;BME280;18147;51.952;6.146;2022-11-21T03:44:51;100468.91;;;0.98;100.00
31538;BME280;18147;51.952;6.146;2022-11-21T03:47:16;100464.44;;;1.02;100.00
31538;BME280;18147;51.952;6.146;2022-11-21T03:49:42;100467.84;;;1.06;100.00
31538;BME280;18147;51.952;6.146;2022-11-21T03:52:08;100458.84;;;1.13;100.00
31538;BME280;18147;51.952;6.146;2022-11-21T03:54:33;100457.41;;;1.02;100.00
31538;BME280;18147;51.952;6.146;2022-11-21T03:56:59;100453.81;;;1.05;100.00
31538;BME280;18147;51.952;6.146;2022-11-21T03:59:24;100461.91;;;0.99;100.00
31538;BME280;18147;51.952;6.146;2022-11-21T04:01:50;100466.34;;;0.97;100.00
31538;BME280;18147;51.952;6.146;2022-11-21T04:04:15;100458.47;;;0.97;100.00
31538;BME280;18147;51.952;6.146;2022-11-21T04:06:41;100466.41;;;0.94;100.00
31538;BME280;18147;51.952;6.146;2022-11-21T04:09:06;100461.03;;;0.98;100.00
31538;BME280;18147;51.952;6.146;2022-11-21T04:11:31;100468.50;;;1.12;100.00
31538;BME280;18147;51.952;6.146;2022-11-21T04:13:57;100476.72;;;1.01;100.00
31538;BME280;18147;51.952;6.146;2022-11-21T04:16:22;100469.03;;;0.94;100.00
31538;BME280;18147;51.952;6.146;2022-11-21T04:18:48;100462.88;;;0.95;100.00
31538;BME280;18147;51.952;6.146;2022-11-21T04:21:13;100473.25;;;0.99;100.00
31538;BME280;18147;51.952;6.146;2022-11-21T04:23:38;100468.72;;;1.04;100.00
31538;BME280;18147;51.952;6.146;2022-11-21T04:26:04;100469.22;;;1.17;100.00
31538;BME280;18147;51.952;6.146;2022-11-21T04:28:29;100469.34;;;1.13;100.00
31538;BME280;18147;51.952;6.146;2022-11-21T04:31:01;100471.84;;;1.17;100.00
31538;BME280;18147;51.952;6.146;2022-11-21T04:33:26;100478.09;;;1.13;100.00
31538;BME280;18147;51.952;6.146;2022-11-21T04:35:52;100480.66;;;1.15;100.00
31538;BME280;18147;51.952;6.146;2022-11-21T04:38:17;100476.25;;;1.15;100.00
31538;BME280;18147;51.952;6.146;2022-11-21T04:40:42;100476.47;;;1.09;100.00
31538;BME280;18147;51.952;6.146;2022-11-21T04:43:09;100471.84;;;1.17;100.00
31538;BME280;18147;51.952;6.146;2022-11-21T04:45:34;100471.00;;;1.17;100.00
31538;BME280;18147;51.952;6.146;2022-11-21T04:48:00;100460.38;;;1.20;100.00
31538;BME280;18147;51.952;6.146;2022-11-21T04:50:25;100464.19;;;1.10;100.00
31538;BME280;18147;51.952;6.146;2022-11-21T04:52:52;100464.19;;;1.10;100.00
31538;BME280;18147;51.952;6.146;2022-11-21T04:55:19;100472.63;;;1.21;100.00
31538;BME280;18147;51.952;6.146;2022-11-21T04:57:45;100462.06;;;1.22;100.00
31538;BME280;18147;51.952;6.146;2022-11-21T05:00:13;100467.16;;;1.27;100.00
31538;BME280;18147;51.952;6.146;2022-11-21T05:02:39;100471.00;;;1.17;100.00
31538;BME280;18147;51.952;6.146;2022-11-21T05:05:05;100457.88;;;1.17;100.00
31538;BME280;18147;51.952;6.146;2022-11-21T05:07:30;100463.13;;;1.15;100.00
31538;BME280;18147;51.952;6.146;2022-11-21T05:09:55;100458.00;;;1.12;100.00
31538;BME280;18147;51.952;6.146;2022-11-21T05:12:21;100459.28;;;0.99;100.00
31538;BME280;18147;51.952;6.146;2022-11-21T05:15:05;100451.59;;;0.93;100.00
31538;BME280;18147;51.952;6.146;2022-11-21T05:17:31;100442.75;;;0.95;100.00
31538;BME280;18147;51.952;6.146;2022-11-21T05:19:56;100448.00;;;0.95;100.00
31538;BME280;18147;51.952;6.146;2022-11-21T05:22:21;100455.00;;;0.96;100.00
31538;BME280;18147;51.952;6.146;2022-11-21T05:24:47;100437.56;;;0.94;100.00
31538;BME280;18147;51.952;6.146;2022-11-21T05:27:12;100431.53;;;0.90;100.00
31538;BME280;18147;51.952;6.146;2022-11-21T05:29:38;100442.03;;;0.90;100.00
31538;BME280;18147;51.952;6.146;2022-11-21T05:32:03;100427.31;;;0.86;100.00
31538;BME280;18147;51.952;6.146;2022-11-21T05:34:28;100445.22;;;1.00;100.00
31538;BME280;18147;51.952;6.146;2022-11-21T05:36:54;100444.00;;;1.12;100.00
31538;BME280;18147;51.952;6.146;2022-11-21T05:39:23;100433.66;;;1.07;100.00
31538;BME280;18147;51.952;6.146;2022-11-21T05:41:49;100432.78;;;1.07;100.00
31538;BME280;18147;51.952;6.146;2022-11-21T05:44:14;100443.03;;;1.16;100.00
31538;BME280;18147;51.952;6.146;2022-11-21T05:46:39;100449.97;;;1.17;100.00
31538;BME280;18147;51.952;6.146;2022-11-21T05:49:05;100453.41;;;1.19;100.00
31538;BME280;18147;51.952;6.146;2022-11-21T05:51:30;100445.59;;;1.17;100.00
31538;BME280;18147;51.952;6.146;2022-11-21T05:53:56;100443.72;;;1.21;100.00
31538;BME280;18147;51.952;6.146;2022-11-21T05:56:21;100441.00;;;1.24;100.00
31538;BME280;18147;51.952;6.146;2022-11-21T05:58:47;100434.88;;;1.23;100.00
31538;BME280;18147;51.952;6.146;2022-11-21T06:01:13;100431.19;;;1.29;100.00
31538;BME280;18147;51.952;6.146;2022-11-21T06:03:40;100429.53;;;1.26;100.00
31538;BME280;18147;51.952;6.146;2022-11-21T06:06:11;100428.00;;;1.19;100.00
31538;BME280;18147;51.952;6.146;2022-11-21T06:08:39;100428.78;;;1.23;100.00
31538;BME280;18147;51.952;6.146;2022-11-21T06:11:06;100420.25;;;1.16;100.00
31538;BME280;18147;51.952;6.146;2022-11-21T06:13:32;100409.19;;;1.05;100.00
31538;BME280;18147;51.952;6.146;2022-11-21T06:16:16;100408.31;;;1.06;100.00
31538;BME280;18147;51.952;6.146;2022-11-21T06:18:48;100406.44;;;1.10;100.00
31538;BME280;18147;51.952;6.146;2022-11-21T06:21:18;100407.28;;;1.10;100.00
31538;BME280;18147;51.952;6.146;2022-11-21T06:23:45;100401.16;;;1.11;100.00
31538;BME280;18147;51.952;6.146;2022-11-21T06:26:12;100407.28;;;1.10;100.00
31538;BME280;18147;51.952;6.146;2022-11-21T06:28:39;100398.56;;;1.10;100.00
31538;BME280;18147;51.952;6.146;2022-11-21T06:31:07;100398.81;;;1.02;100.00
31538;BME280;18147;51.952;6.146;2022-11-21T06:33:34;100389.25;;;0.99;100.00
31538;BME280;18147;51.952;6.146;2022-11-21T06:36:08;100390.06;;;1.01;100.00
31538;BME280;18147;51.952;6.146;2022-11-21T06:38:34;100389.97;;;1.04;100.00
31538;BME280;18147;51.952;6.146;2022-11-21T06:41:11;100381.22;;;1.06;100.00
31538;BME280;18147;51.952;6.146;2022-11-21T06:43:37;100382.91;;;1.07;100.00
31538;BME280;18147;51.952;6.146;2022-11-21T06:46:02;100390.88;;;1.03;100.00
31538;BME280;18147;51.952;6.146;2022-11-21T06:48:31;100396.97;;;1.06;100.00
31538;BME280;18147;51.952;6.146;2022-11-21T06:51:02;100404.66;;;1.10;100.00
31538;BME280;18147;51.952;6.146;2022-11-21T06:53:27;100400.94;;;1.17;100.00
31538;BME280;18147;51.952;6.146;2022-11-21T06:55:53;100401.75;;;1.19;100.00
31538;BME280;18147;51.952;6.146;2022-11-21T06:58:18;100404.38;;;1.19;100.00
31538;BME280;18147;51.952;6.146;2022-11-21T07:00:43;100395.63;;;1.19;100.00
31538;BME280;18147;51.952;6.146;2022-11-21T07:03:09;100405.09;;;1.24;100.00
31538;BME280;18147;51.952;6.146;2022-11-21T07:05:34;100398.81;;;1.28;100.00
31538;BME280;18147;51.952;6.146;2022-11-21T07:08:00;100399.81;;;1.26;100.00
31538;BME280;18147;51.952;6.146;2022-11-21T07:10:27;100396.13;;;1.32;100.00
31538;BME280;18147;51.952;6.146;2022-11-21T07:12:57;100391.81;;;1.29;100.00
31538;BME280;18147;51.952;6.146;2022-11-21T07:15:42;100390.94;;;1.28;100.00
31538;BME280;18147;51.952;6.146;2022-11-21T07:18:07;100389.25;;;1.27;100.00
31538;BME280;18147;51.952;6.146;2022-11-21T07:20:33;100388.59;;;1.21;100.00
31538;BME280;18147;51.952;6.146;2022-11-21T07:22:58;100383.28;;;1.22;100.00
31538;BME280;18147;51.952;6.146;2022-11-21T07:25:25;100377.19;;;1.20;100.00
31538;BME280;18147;51.952;6.146;2022-11-21T07:27:50;100382.38;;;1.23;100.00
31538;BME280;18147;51.952;6.146;2022-11-21T07:30:16;100379.59;;;1.28;100.00
31538;BME280;18147;51.952;6.146;2022-11-21T07:32:41;100381.31;;;1.29;100.00
31538;BME280;18147;51.952;6.146;2022-11-21T07:35:07;100382.22;;;1.28;100.00
31538;BME280;18147;51.952;6.146;2022-11-21T07:37:37;100378.47;;;1.35;100.00
31538;BME280;18147;51.952;6.146;2022-11-21T07:40:03;100384.41;;;1.42;100.00
31538;BME280;18147;51.952;6.146;2022-11-21T07:42:33;100380.84;;;1.43;100.00
31538;BME280;18147;51.952;6.146;2022-11-21T07:44:59;100389.53;;;1.45;100.00
31538;BME280;18147;51.952;6.146;2022-11-21T07:47:24;100386.09;;;1.43;100.00
31538;BME280;18147;51.952;6.146;2022-11-21T07:49:50;100383.22;;;1.50;100.00
31538;BME280;18147;51.952;6.146;2022-11-21T07:52:15;100379.72;;;1.50;100.00
31538;BME280;18147;51.952;6.146;2022-11-21T07:54:41;100361.31;;;1.51;100.00
31538;BME280;18147;51.952;6.146;2022-11-21T07:57:06;100361.34;;;1.50;100.00
31538;BME280;18147;51.952;6.146;2022-11-21T07:59:31;100370.03;;;1.52;100.00
31538;BME280;18147;51.952;6.146;2022-11-21T08:01:57;100370.69;;;1.59;100.00
31538;BME280;18147;51.952;6.146;2022-11-21T08:04:22;100377.47;;;1.66;100.00
31538;BME280;18147;51.952;6.146;2022-11-21T08:06:48;100371.59;;;1.58;100.00
31538;BME280;18147;51.952;6.146;2022-11-21T08:09:13;100361.88;;;1.60;100.00
31538;BME280;18147;51.952;6.146;2022-11-21T08:11:39;100355.84;;;1.58;100.00
31538;BME280;18147;51.952;6.146;2022-11-21T08:14:04;100358.31;;;1.62;100.00
31538;BME280;18147;51.952;6.146;2022-11-21T08:16:30;100358.84;;;1.72;100.00
31538;BME280;18147;51.952;6.146;2022-11-21T08:19:00;100351.75;;;1.74;100.00
31538;BME280;18147;51.952;6.146;2022-11-21T08:21:26;100349.28;;;1.69;100.00
31538;BME280;18147;51.952;6.146;2022-11-21T08:23:52;100343.63;;;1.81;100.00
31538;BME280;18147;51.952;6.146;2022-11-21T08:26:18;100345.50;;;1.78;100.00
31538;BME280;18147;51.952;6.146;2022-11-21T08:28:43;100340.28;;;1.76;100.00
31538;BME280;18147;51.952;6.146;2022-11-21T08:31:09;100332.97;;;1.85;100.00
31538;BME280;18147;51.952;6.146;2022-11-21T08:33:34;100332.66;;;1.94;100.00
31538;BME280;18147;51.952;6.146;2022-11-21T08:36:04;100331.72;;;1.95;100.00
31538;BME280;18147;51.952;6.146;2022-11-21T08:38:29;100342.16;;;1.98;100.00
31538;BME280;18147;51.952;6.146;2022-11-21T08:40:55;100334.19;;;1.99;100.00
31538;BME280;18147;51.952;6.146;2022-11-21T08:43:39;100336.03;;;1.97;100.00
31538;BME280;18147;51.952;6.146;2022-11-21T08:46:04;100321.91;;;2.00;100.00
31538;BME280;18147;51.952;6.146;2022-11-21T08:48:29;100320.88;;;2.04;100.00
31538;BME280;18147;51.952;6.146;2022-11-21T08:50:58;100319.75;;;2.11;100.00
31538;BME280;18147;51.952;6.146;2022-11-21T08:53:24;100310.94;;;2.12;100.00
31538;BME280;18147;51.952;6.146;2022-11-21T08:55:49;100312.31;;;2.22;100.00
31538;BME280;18147;51.952;6.146;2022-11-21T08:58:15;100310.78;;;2.17;100.00
31538;BME280;18147;51.952;6.146;2022-11-21T09:00:40;100308.78;;;2.23;100.00
31538;BME280;18147;51.952;6.146;2022-11-21T09:03:05;100306.03;;;2.26;100.00
31538;BME280;18147;51.952;6.146;2022-11-21T09:05:32;100306.38;;;2.17;100.00
31538;BME280;18147;51.952;6.146;2022-11-21T09:07:58;100293.94;;;2.21;100.00
31538;BME280;18147;51.952;6.146;2022-11-21T09:10:26;100287.56;;;2.28;100.00
31538;BME280;18147;51.952;6.146;2022-11-21T09:12:53;100285.53;;;2.34;100.00
31538;BME280;18147;51.952;6.146;2022-11-21T09:15:18;100282.56;;;2.44;100.00
31538;BME280;18147;51.952;6.146;2022-11-21T09:18:03;100289.28;;;2.51;100.00
31538;BME280;18147;51.952;6.146;2022-11-21T09:20:29;100288.03;;;2.61;100.00
31538;BME280;18147;51.952;6.146;2022-11-21T09:22:55;100280.06;;;2.63;100.00
31538;BME280;18147;51.952;6.146;2022-11-21T09:25:20;100286.97;;;2.65;100.00
31538;BME280;18147;51.952;6.146;2022-11-21T09:27:46;100288.50;;;2.71;100.00
31538;BME280;18147;51.952;6.146;2022-11-21T09:30:11;100290.09;;;2.75;100.00
31538;BME280;18147;51.952;6.146;2022-11-21T09:32:37;100287.59;;;2.72;100.00
31538;BME280;18147;51.952;6.146;2022-11-21T09:35:04;100295.25;;;2.78;100.00
31538;BME280;18147;51.952;6.146;2022-11-21T09:37:35;100284.75;;;2.98;100.00
31538;BME280;18147;51.952;6.146;2022-11-21T09:40:01;100278.31;;;3.26;100.00
31538;BME280;18147;51.952;6.146;2022-11-21T09:45:44;100269.44;;;3.49;100.00
31538;BME280;18147;51.952;6.146;2022-11-21T09:48:16;100266.75;;;3.30;100.00
31538;BME280;18147;51.952;6.146;2022-11-21T09:50:47;100262.13;;;3.15;100.00
31538;BME280;18147;51.952;6.146;2022-11-21T09:53:18;100257.31;;;3.24;100.00
31538;BME280;18147;51.952;6.146;2022-11-21T09:58:43;100246.13;;;3.40;100.00
31538;BME280;18147;51.952;6.146;2022-11-21T10:01:12;100250.94;;;3.30;100.00
31538;BME280;18147;51.952;6.146;2022-11-21T10:03:48;100241.00;;;3.36;100.00
31538;BME280;18147;51.952;6.146;2022-11-21T10:06:53;100218.72;;;3.23;100.00
31538;BME280;18147;51.952;6.146;2022-11-21T10:23:49;100209.69;;;3.29;100.00
31538;BME280;18147;51.952;6.146;2022-11-21T10:26:39;100198.13;;;3.33;100.00
31538;BME280;18147;51.952;6.146;2022-11-21T10:31:48;100196.94;;;3.59;100.00
31538;BME280;18147;51.952;6.146;2022-11-21T10:34:19;100197.69;;;3.62;100.00
31538;BME280;18147;51.952;6.146;2022-11-21T10:36:49;100196.44;;;3.51;100.00
31538;BME280;18147;51.952;6.146;2022-11-21T10:39:34;100203.34;;;3.53;100.00
31538;BME280;18147;51.952;6.146;2022-11-21T10:44:49;100185.63;;;3.57;100.00
31538;BME280;18147;51.952;6.146;2022-11-21T10:47:34;100187.34;;;3.58;100.00
31538;BME280;18147;51.952;6.146;2022-11-21T10:52:37;100175.50;;;3.85;100.00
31538;BME280;18147;51.952;6.146;2022-11-21T11:02:57;100172.22;;;3.99;100.00
31538;BME280;18147;51.952;6.146;2022-11-21T11:05:31;100171.81;;;4.08;100.00
31538;BME280;18147;51.952;6.146;2022-11-21T11:08:09;100155.91;;;3.91;100.00
31538;BME280;18147;51.952;6.146;2022-11-21T11:10:36;100150.50;;;3.94;100.00
31538;BME280;18147;51.952;6.146;2022-11-21T11:13:02;100141.59;;;3.97;100.00
31538;BME280;18147;51.952;6.146;2022-11-21T11:18:29;100149.84;;;4.08;100.00
31538;BME280;18147;51.952;6.146;2022-11-21T11:21:12;100143.00;;;4.04;100.00
31538;BME280;18147;51.952;6.146;2022-11-21T11:23:38;100135.59;;;4.12;100.00
31538;BME280;18147;51.952;6.146;2022-11-21T11:26:26;100130.63;;;4.23;100.00
31538;BME280;18147;51.952;6.146;2022-11-21T11:28:53;100128.53;;;4.30;100.00
31538;BME280;18147;51.952;6.146;2022-11-21T11:31:39;100120.09;;;4.40;100.00
31538;BME280;18147;51.952;6.146;2022-11-21T11:34:04;100109.72;;;4.55;100.00
31538;BME280;18147;51.952;6.146;2022-11-21T11:36:36;100105.44;;;4.52;100.00
31538;BME280;18147;51.952;6.146;2022-11-21T11:39:39;100105.59;;;4.66;100.00
31538;BME280;18147;51.952;6.146;2022-11-21T11:42:31;100086.47;;;4.79;100.00
31538;BME280;18147;51.952;6.146;2022-11-21T11:48:41;100083.38;;;5.21;100.00
31538;BME280;18147;51.952;6.146;2022-11-21T11:51:26;100082.59;;;5.19;100.00
31538;BME280;18147;51.952;6.146;2022-11-21T11:54:07;100064.88;;;5.21;100.00
31538;BME280;18147;51.952;6.146;2022-11-21T11:56:35;100063.88;;;5.39;100.00
31538;BME280;18147;51.952;6.146;2022-11-21T11:59:27;100053.56;;;5.51;100.00
31538;BME280;18147;51.952;6.146;2022-11-21T12:04:30;100051.91;;;6.11;100.00
31538;BME280;18147;51.952;6.146;2022-11-21T12:07:07;100042.31;;;5.94;100.00
31538;BME280;18147;51.952;6.146;2022-11-21T12:09:41;100049.22;;;6.13;100.00
31538;BME280;18147;51.952;6.146;2022-11-21T12:12:17;100044.34;;;6.05;100.00
31538;BME280;18147;51.952;6.146;2022-11-21T12:18:14;100029.28;;;6.21;100.00
31538;BME280;18147;51.952;6.146;2022-11-21T12:21:04;100026.34;;;6.26;100.00
31538;BME280;18147;51.952;6.146;2022-11-21T12:23:40;100017.72;;;6.38;100.00
31538;BME280;18147;51.952;6.146;2022-11-21T12:29:08;100008.34;;;6.47;100.00
31538;BME280;18147;51.952;6.146;2022-11-21T12:32:00;99996.06;;;6.60;100.00
31538;BME280;18147;51.952;6.146;2022-11-21T12:34:43;99998.53;;;6.92;100.00
31538;BME280;18147;51.952;6.146;2022-11-21T12:37:21;99989.63;;;7.07;100.00
31538;BME280;18147;51.952;6.146;2022-11-21T12:45:36;99966.00;;;6.90;100.00
31538;BME280;18147;51.952;6.146;2022-11-21T12:51:23;99958.16;;;6.88;100.00
31538;BME280;18147;51.952;6.146;2022-11-21T12:57:15;99948.59;;;6.71;100.00
31538;BME280;18147;51.952;6.146;2022-11-21T13:05:22;99933.03;;;6.37;100.00
31538;BME280;18147;51.952;6.146;2022-11-21T13:07:52;99932.56;;;6.30;100.00
31538;BME280;18147;51.952;6.146;2022-11-21T13:10:20;99930.59;;;6.34;100.00
31538;BME280;18147;51.952;6.146;2022-11-21T13:12:50;99918.38;;;6.31;100.00
31538;BME280;18147;51.952;6.146;2022-11-21T13:15:36;99919.34;;;6.30;100.00
31538;BME280;18147;51.952;6.146;2022-11-21T13:18:19;99915.34;;;6.37;100.00
31538;BME280;18147;51.952;6.146;2022-11-21T13:20:50;99913.09;;;6.45;100.00
31538;BME280;18147;51.952;6.146;2022-11-21T13:23:40;99911.31;;;6.46;100.00
31538;BME280;18147;51.952;6.146;2022-11-21T13:28:50;99900.44;;;6.65;100.00
31538;BME280;18147;51.952;6.146;2022-11-21T13:31:33;99894.56;;;6.60;100.00
31538;BME280;18147;51.952;6.146;2022-11-21T13:34:01;99893.63;;;6.61;100.00
31538;BME280;18147;51.952;6.146;2022-11-21T13:42:05;99867.06;;;6.48;100.00
31538;BME280;18147;51.952;6.146;2022-11-21T13:44:51;99867.81;;;6.50;100.00
31538;BME280;18147;51.952;6.146;2022-11-21T13:48:09;99855.03;;;6.42;100.00
31538;BME280;18147;51.952;6.146;2022-11-21T13:50:44;99855.59;;;6.47;100.00
31538;BME280;18147;51.952;6.146;2022-11-21T13:53:41;99848.59;;;6.46;100.00
31538;BME280;18147;51.952;6.146;2022-11-21T13:56:33;99854.47;;;6.52;100.00
31538;BME280;18147;51.952;6.146;2022-11-21T14:01:55;99849.38;;;6.48;100.00
31538;BME280;18147;51.952;6.146;2022-11-21T14:04:38;99840.66;;;6.46;100.00
31538;BME280;18147;51.952;6.146;2022-11-21T14:07:21;99840.88;;;6.43;100.00
31538;BME280;18147;51.952;6.146;2022-11-21T14:09:49;99835.75;;;6.40;100.00
31538;BME280;18147;51.952;6.146;2022-11-21T14:12:22;99825.44;;;6.36;100.00
31538;BME280;18147;51.952;6.146;2022-11-21T14:15:10;99816.75;;;6.34;100.00
31538;BME280;18147;51.952;6.146;2022-11-21T14:17:57;99814.69;;;6.25;100.00
31538;BME280;18147;51.952;6.146;2022-11-21T14:20:26;99800.88;;;6.19;100.00
31538;BME280;18147;51.952;6.146;2022-11-21T14:25:43;99767.16;;;6.09;100.00
31538;BME280;18147;51.952;6.146;2022-11-21T14:28:16;99780.44;;;6.07;100.00
31538;BME280;18147;51.952;6.146;2022-11-21T14:30:45;99781.78;;;6.00;100.00
31538;BME280;18147;51.952;6.146;2022-11-21T14:33:31;99775.94;;;5.95;100.00